createdAt,value
2018-12-08T00:00:29.968Z,133.03
2018-12-08T00:02:59.392Z,132.60
2018-12-08T00:05:28.846Z,130.13
2018-12-08T00:07:58.289Z,131.43
2018-12-08T00:10:27.741Z,133.30
2018-12-08T00:12:57.145Z,132.00
2018-12-08T00:15:26.585Z,128.80
2018-12-08T00:17:55.989Z,126.97
2018-12-08T00:20:25.434Z,128.67
2018-12-08T00:22:54.844Z,128.93
2018-12-08T00:25:24.322Z,129.37
2018-12-08T00:27:53.740Z,124.17
2018-12-08T00:31:33.899Z,126.97
2018-12-08T00:34:03.301Z,123.60
2018-12-08T00:36:32.742Z,122.70
2018-12-08T00:39:02.177Z,124.63
2018-12-08T00:41:32.761Z,122.73
2018-12-08T00:44:02.225Z,122.40
2018-12-08T00:46:31.688Z,121.43
2018-12-08T00:49:01.123Z,120.90
2018-12-08T00:51:30.572Z,120.93
2018-12-08T00:54:05.133Z,117.43
2018-12-08T00:56:34.622Z,117.00
2018-12-08T00:59:04.040Z,119.80
2018-12-08T01:01:33.501Z,119.67
2018-12-08T01:04:02.904Z,117.60
2018-12-08T01:06:32.376Z,113.87
2018-12-08T01:09:01.800Z,114.20
2018-12-08T01:11:32.401Z,113.10
2018-12-08T01:14:01.816Z,110.80
2018-12-08T01:16:31.261Z,113.47
2018-12-08T01:19:00.687Z,115.87
2018-12-08T01:21:30.126Z,112.37
2018-12-08T01:23:59.529Z,111.10
2018-12-08T01:26:28.958Z,105.47
2018-12-08T01:28:58.361Z,108.17
2018-12-08T01:31:27.769Z,107.27
2018-12-08T01:33:57.207Z,105.50
2018-12-08T01:36:26.666Z,108.53
2018-12-08T01:38:56.100Z,104.40
2018-12-08T01:41:25.547Z,104.00
2018-12-08T01:43:54.989Z,102.67
2018-12-08T01:46:24.432Z,101.17
2018-12-08T01:48:53.888Z,104.23
2018-12-08T01:51:23.294Z,101.70
2018-12-08T01:53:52.777Z,100.03
2018-12-08T01:56:22.201Z,99.17
2018-12-08T01:58:51.760Z,99.83
2018-12-08T02:01:21.164Z,94.67
2018-12-08T02:03:57.185Z,97.07
2018-12-08T02:06:26.597Z,97.60
2018-12-08T02:08:56.031Z,97.63
2018-12-08T02:11:27.500Z,94.53
2018-12-08T02:13:56.916Z,92.83
2018-12-08T02:16:26.315Z,92.50
2018-12-08T02:18:55.753Z,94.33
2018-12-08T02:21:25.155Z,93.30
2018-12-08T02:23:54.575Z,91.57
2018-12-08T02:26:24.060Z,91.07
2018-12-08T02:28:53.508Z,89.17
2018-12-08T02:31:22.977Z,88.27
2018-12-08T02:33:52.396Z,87.40
2018-12-08T02:36:21.805Z,85.50
2018-12-08T02:38:51.196Z,86.60
2018-12-08T02:41:20.622Z,85.60
2018-12-08T02:43:50.019Z,86.83
2018-12-08T02:46:19.452Z,84.80
2018-12-08T02:48:48.865Z,84.90
2018-12-08T02:51:18.287Z,84.40
2018-12-08T02:53:47.696Z,81.40
2018-12-08T02:56:17.095Z,83.77
2018-12-08T02:58:46.485Z,80.90
2018-12-08T03:01:15.911Z,79.10
2018-12-08T03:03:45.313Z,79.33
2018-12-08T03:06:14.757Z,78.63
2018-12-08T03:08:44.182Z,81.07
2018-12-08T03:11:13.600Z,78.23
2018-12-08T03:13:43.096Z,77.00
2018-12-08T03:16:12.545Z,77.47
2018-12-08T03:18:41.942Z,72.93
2018-12-08T03:21:11.410Z,74.20
2018-12-08T03:23:40.812Z,75.60
2018-12-08T03:26:10.240Z,72.33
2018-12-08T03:28:40.683Z,72.07
2018-12-08T03:31:10.124Z,72.13
2018-12-08T03:33:39.653Z,71.90
2018-12-08T03:36:09.092Z,70.83
2018-12-08T03:38:38.480Z,68.90
2018-12-08T03:41:07.934Z,71.07
2018-12-08T03:43:37.335Z,68.30
2018-12-08T03:46:06.753Z,67.00
2018-12-08T03:48:36.194Z,68.07
2018-12-08T03:51:05.739Z,66.70
2018-12-08T03:53:37.214Z,65.70
2018-12-08T03:56:06.653Z,66.00
2018-12-08T03:58:36.091Z,65.77
2018-12-08T04:01:05.560Z,64.40
2018-12-08T04:03:34.996Z,67.13
2018-12-08T04:06:04.409Z,62.10
2018-12-08T04:08:33.851Z,63.40
2018-12-08T04:11:03.304Z,62.37
2018-12-08T04:13:32.745Z,62.20
2018-12-08T04:16:02.196Z,62.80
2018-12-08T04:18:31.596Z,62.83
2018-12-08T04:21:01.054Z,60.43
2018-12-08T04:23:30.454Z,61.03
2018-12-08T04:25:59.876Z,59.57
2018-12-08T04:28:29.278Z,58.10
2018-12-08T04:30:58.687Z,60.43
2018-12-08T04:33:28.108Z,57.90
2018-12-08T04:35:57.615Z,57.73
2018-12-08T04:38:27.024Z,56.47
2018-12-08T04:40:56.441Z,57.07
2018-12-08T04:43:25.886Z,55.93
2018-12-08T04:45:55.271Z,55.40
2018-12-08T04:48:24.672Z,55.93
2018-12-08T04:50:55.154Z,54.13
2018-12-08T04:53:24.601Z,55.37
2018-12-08T04:55:54.126Z,53.33
2018-12-08T04:58:23.536Z,51.60
2018-12-08T05:00:52.986Z,52.80
2018-12-08T05:03:22.384Z,52.50
2018-12-08T05:05:51.857Z,53.30
2018-12-08T05:08:21.288Z,52.90
2018-12-08T05:10:50.748Z,51.10
2018-12-08T05:13:20.141Z,50.13
2018-12-08T05:15:50.620Z,50.63
2018-12-08T05:18:20.014Z,50.70
2018-12-08T05:20:49.447Z,50.47
2018-12-08T05:23:18.849Z,48.30
2018-12-08T05:25:48.316Z,49.07
2018-12-08T05:28:17.727Z,49.03
2018-12-08T05:30:47.157Z,48.63
2018-12-08T05:33:16.577Z,48.00
2018-12-08T05:35:46.034Z,47.90
2018-12-08T05:38:15.468Z,45.77
2018-12-08T05:40:44.916Z,45.70
2018-12-08T05:43:14.343Z,46.63
2018-12-08T05:45:43.785Z,47.20
2018-12-08T05:48:13.188Z,47.00
2018-12-08T05:50:42.633Z,46.33
2018-12-08T05:53:12.035Z,44.93
2018-12-08T05:55:41.432Z,45.97
2018-12-08T05:58:10.838Z,44.77
2018-12-08T06:00:40.405Z,43.13
2018-12-08T06:03:09.813Z,43.17
2018-12-08T06:05:39.263Z,43.90
2018-12-08T06:08:08.661Z,42.13
2018-12-08T06:10:38.073Z,42.07
2018-12-08T06:13:07.489Z,40.67
2018-12-08T06:15:36.909Z,40.57
2018-12-08T06:18:06.342Z,40.60
2018-12-08T06:20:35.752Z,38.40
2018-12-08T06:23:05.168Z,39.87
2018-12-08T06:25:36.781Z,39.67
2018-12-08T06:28:20.163Z,42.60
2018-12-08T06:30:49.561Z,44.20
2018-12-08T06:33:18.984Z,47.73
2018-12-08T06:35:48.448Z,48.80
2018-12-08T06:38:18.124Z,50.40
2018-12-08T06:40:47.536Z,56.60
2018-12-08T06:43:16.953Z,59.70
2018-12-08T06:45:46.384Z,61.70
2018-12-08T06:48:15.778Z,81.73
2018-12-08T06:50:45.224Z,84.77
2018-12-08T06:53:14.636Z,75.73
2018-12-08T06:55:44.077Z,73.73
2018-12-08T06:58:13.504Z,72.43
2018-12-08T07:00:42.911Z,74.07
2018-12-08T07:03:12.436Z,73.63
2018-12-08T07:05:41.829Z,83.70
2018-12-08T07:08:11.228Z,77.53
2018-12-08T07:10:40.633Z,78.33
2018-12-08T07:13:10.041Z,73.83
2018-12-08T07:15:39.474Z,72.53
2018-12-08T07:18:08.910Z,71.93
2018-12-08T07:20:38.297Z,71.30
2018-12-08T07:23:07.468Z,71.33
2018-12-08T07:25:36.908Z,69.63
2018-12-08T07:28:06.330Z,70.13
2018-12-08T07:30:35.738Z,74.73
2018-12-08T07:33:05.154Z,72.57
2018-12-08T07:35:34.623Z,71.87
2018-12-08T07:38:04.032Z,70.87
2018-12-08T07:40:33.460Z,70.90
2018-12-08T07:43:02.896Z,68.63
2018-12-08T07:45:32.320Z,65.33
2018-12-08T07:48:01.756Z,68.33
2018-12-08T07:50:31.204Z,63.57
2018-12-08T07:53:00.696Z,63.77
2018-12-08T07:55:30.143Z,75.53
2018-12-08T07:57:59.557Z,67.17
2018-12-08T08:00:29.013Z,69.73
2018-12-08T08:02:58.410Z,66.80
2018-12-08T08:05:27.824Z,70.50
2018-12-08T08:07:57.287Z,71.20
2018-12-08T08:10:26.705Z,70.40
2018-12-08T08:12:56.144Z,67.13
2018-12-08T08:15:25.560Z,70.33
2018-12-08T08:17:55.017Z,69.47
2018-12-08T08:20:24.448Z,71.67
2018-12-08T08:22:53.904Z,71.50
2018-12-08T08:25:23.401Z,69.80
2018-12-08T08:27:52.948Z,70.37
2018-12-08T08:30:22.393Z,75.70
2018-12-08T08:32:51.875Z,68.73
2018-12-08T08:35:21.414Z,71.17
2018-12-08T08:37:50.960Z,70.50
2018-12-08T08:40:20.371Z,67.93
2018-12-08T08:42:49.828Z,66.13
2018-12-08T08:45:19.264Z,68.70
2018-12-08T08:47:48.756Z,65.93
2018-12-08T08:50:18.174Z,67.60
2018-12-08T08:52:47.805Z,69.27
2018-12-08T08:55:17.224Z,66.10
2018-12-08T08:57:46.644Z,66.00
2018-12-08T09:00:16.088Z,66.53
2018-12-08T09:02:45.574Z,64.07
2018-12-08T09:05:15.092Z,64.53
2018-12-08T09:07:44.557Z,66.40
2018-12-08T09:10:14.000Z,65.37
2018-12-08T09:12:43.477Z,65.43
2018-12-08T09:15:12.953Z,64.23
2018-12-08T09:17:42.366Z,65.33
2018-12-08T09:20:13.306Z,62.53
2018-12-08T09:22:42.720Z,63.07
2018-12-08T09:25:12.270Z,62.70
2018-12-08T09:27:41.695Z,62.43
2018-12-08T09:30:11.993Z,61.40
2018-12-08T09:32:42.479Z,60.70
2018-12-08T09:35:11.989Z,59.20
2018-12-08T09:37:41.533Z,59.57
2018-12-08T09:40:10.985Z,59.17
2018-12-08T09:42:40.407Z,58.37
2018-12-08T09:45:16.093Z,57.33
2018-12-08T09:47:45.492Z,54.83
2018-12-08T09:50:14.940Z,52.00
2018-12-08T09:52:44.372Z,54.67
2018-12-08T09:55:13.875Z,51.40
2018-12-08T09:57:43.385Z,52.67
2018-12-08T10:00:13.924Z,52.03
2018-12-08T10:02:43.406Z,49.77
2018-12-08T10:05:12.846Z,47.00
2018-12-08T10:07:42.272Z,47.17
2018-12-08T10:10:11.798Z,48.03
2018-12-08T10:12:41.224Z,45.37
2018-12-08T10:15:10.644Z,45.77
2018-12-08T10:17:40.076Z,43.97
2018-12-08T10:20:09.546Z,43.90
2018-12-08T10:22:39.030Z,42.07
2018-12-08T10:25:08.468Z,40.47
2018-12-08T10:27:37.876Z,41.73
2018-12-08T10:30:08.669Z,39.40
2018-12-08T10:32:38.480Z,39.80
2018-12-08T10:35:11.772Z,37.53
2018-12-08T10:37:41.509Z,37.20
2018-12-08T10:40:11.430Z,36.93
2018-12-08T10:42:41.944Z,35.93
2018-12-08T10:45:11.414Z,36.10
2018-12-08T10:47:40.872Z,34.67
2018-12-08T10:50:11.409Z,35.60
2018-12-08T10:52:42.888Z,33.60
2018-12-08T10:55:14.392Z,33.33
2018-12-08T10:57:43.837Z,33.47
2018-12-08T11:00:18.337Z,34.18
2018-12-08T11:02:57.350Z,31.77
2018-12-08T11:05:26.790Z,31.30
2018-12-08T11:07:56.257Z,30.27
2018-12-08T11:10:25.680Z,30.87
2018-12-08T11:12:55.152Z,28.77
2018-12-08T11:15:24.581Z,29.20
2018-12-08T11:17:54.023Z,29.90
2018-12-08T11:20:23.528Z,28.70
2018-12-08T11:22:52.968Z,28.13
2018-12-08T11:25:22.390Z,33.33
2018-12-08T11:27:51.858Z,28.37
2018-12-08T11:30:21.300Z,28.00
2018-12-08T11:32:51.596Z,26.33
2018-12-08T11:35:21.149Z,27.23
2018-12-08T11:37:50.737Z,26.93
2018-12-08T11:40:21.965Z,27.03
2018-12-08T11:42:51.739Z,26.03
2018-12-08T11:45:21.788Z,24.53
2018-12-08T11:47:53.954Z,24.07
2018-12-08T11:50:24.451Z,25.83
2018-12-08T11:52:54.074Z,26.50
2018-12-08T11:55:47.248Z,24.20
2018-12-08T11:58:51.581Z,25.27
2018-12-08T12:01:23.367Z,24.90
2018-12-08T12:03:53.500Z,24.40
2018-12-08T12:06:24.084Z,24.43
2018-12-08T12:08:54.086Z,23.87
2018-12-08T12:11:25.323Z,22.60
2018-12-08T12:13:56.287Z,21.90
2018-12-08T12:16:25.728Z,23.53
2018-12-08T12:18:55.578Z,22.93
2018-12-08T12:21:25.199Z,21.80
2018-12-08T12:23:56.718Z,22.23
2018-12-08T12:26:26.192Z,23.20
2018-12-08T12:28:55.709Z,22.37
2018-12-08T12:31:25.448Z,21.90
2018-12-08T12:33:54.905Z,21.53
2018-12-08T12:36:25.068Z,21.53
2018-12-08T12:38:55.665Z,20.30
2018-12-08T12:41:26.136Z,20.93
2018-12-08T12:43:55.603Z,20.77
2018-12-08T12:46:26.067Z,20.83
2018-12-08T12:48:55.963Z,19.67
2018-12-08T12:51:25.792Z,20.23
2018-12-08T12:53:55.228Z,20.63
2018-12-08T12:56:24.857Z,20.23
2018-12-08T12:59:01.077Z,19.07
2018-12-08T13:01:31.405Z,19.67
2018-12-08T13:04:01.171Z,19.13
2018-12-08T13:06:31.648Z,19.50
2018-12-08T13:09:01.268Z,20.07
2018-12-08T13:11:30.824Z,19.00
2018-12-08T13:14:00.276Z,18.87
2018-12-08T13:16:30.838Z,18.17
2018-12-08T13:19:00.261Z,18.60
2018-12-08T13:21:29.697Z,18.77
2018-12-08T13:23:59.141Z,17.43
2018-12-08T13:26:28.561Z,17.87
2018-12-08T13:28:58.413Z,18.20
2018-12-08T13:31:28.023Z,18.90
2018-12-08T13:33:57.537Z,15.83
2018-12-08T13:36:27.291Z,17.40
2018-12-08T13:38:56.724Z,16.80
2018-12-08T13:41:26.159Z,17.13
2018-12-08T13:43:56.148Z,17.03
2018-12-08T13:46:25.549Z,16.37
2018-12-08T13:48:55.038Z,16.83
2018-12-08T13:51:24.725Z,16.93
2018-12-08T13:53:54.269Z,17.23
2018-12-08T13:56:23.676Z,16.60
2018-12-08T13:58:53.127Z,16.80
2018-12-08T14:01:22.851Z,15.60
2018-12-08T14:03:52.412Z,16.23
2018-12-08T14:06:21.845Z,15.90
2018-12-08T14:08:51.281Z,16.37
2018-12-08T14:11:20.693Z,15.53
2018-12-08T14:13:50.136Z,15.90
2018-12-08T14:16:19.558Z,15.50
2018-12-08T14:18:48.960Z,15.17
2018-12-08T14:21:18.368Z,15.17
2018-12-08T14:23:47.804Z,14.80
2018-12-08T14:26:17.219Z,15.83
2018-12-08T14:28:46.634Z,14.87
2018-12-08T14:31:16.114Z,14.93
2018-12-08T14:33:45.556Z,14.97
2018-12-08T14:36:14.985Z,14.40
2018-12-08T14:38:44.429Z,14.07
2018-12-08T14:41:13.921Z,14.73
2018-12-08T14:43:43.328Z,14.03
2018-12-08T14:46:12.797Z,15.13
2018-12-08T14:48:42.248Z,15.17
2018-12-08T14:51:11.743Z,14.43
2018-12-08T14:53:41.157Z,13.73
2018-12-08T14:56:10.660Z,14.93
2018-12-08T14:58:41.045Z,13.70
2018-12-08T15:01:10.616Z,14.00
2018-12-08T15:03:40.024Z,13.53
2018-12-08T15:06:09.517Z,13.77
2018-12-08T15:08:38.961Z,14.00
2018-12-08T15:11:08.372Z,13.50
2018-12-08T15:13:37.776Z,13.20
2018-12-08T15:16:07.197Z,13.73
2018-12-08T15:18:36.644Z,12.97
2018-12-08T15:21:06.057Z,13.60
2018-12-08T15:23:35.476Z,12.83
2018-12-08T15:26:04.924Z,12.17
2018-12-08T15:28:34.352Z,12.33
2018-12-08T15:31:03.763Z,12.50
2018-12-08T15:33:33.176Z,11.90
2018-12-08T15:36:02.605Z,11.97
2018-12-08T15:38:32.014Z,12.47
2018-12-08T15:41:01.422Z,12.07
2018-12-08T15:43:30.845Z,11.87
2018-12-08T15:46:00.285Z,11.87
2018-12-08T15:48:29.692Z,11.87
2018-12-08T15:50:59.120Z,11.27
2018-12-08T15:53:28.560Z,11.63
2018-12-08T15:55:58.306Z,11.50
2018-12-08T15:58:27.740Z,11.20
2018-12-08T16:00:57.168Z,13.00
2018-12-08T16:03:26.618Z,12.03
2018-12-08T16:05:56.036Z,13.33
2018-12-08T16:08:25.616Z,10.83
2018-12-08T16:10:55.013Z,13.50
2018-12-08T16:13:24.457Z,13.53
2018-12-08T16:15:56.276Z,15.93
2018-12-08T16:18:25.697Z,15.93
2018-12-08T16:20:55.153Z,13.37
2018-12-08T16:23:24.596Z,13.13
2018-12-08T16:25:54.031Z,12.90
2018-12-08T16:28:23.428Z,12.37
2018-12-08T16:30:52.854Z,14.53
2018-12-08T16:33:22.288Z,11.97
2018-12-08T16:35:51.717Z,12.17
2018-12-08T16:38:21.137Z,11.80
2018-12-08T16:40:50.593Z,12.40
2018-12-08T16:43:20.024Z,11.70
2018-12-08T16:45:49.506Z,11.40
2018-12-08T16:48:18.936Z,11.50
2018-12-08T16:50:48.366Z,12.57
2018-12-08T16:53:17.784Z,19.97
2018-12-08T16:55:47.364Z,21.90
2018-12-08T16:58:16.816Z,19.40
2018-12-08T17:00:46.252Z,17.67
2018-12-08T17:03:15.684Z,16.90
2018-12-08T17:05:45.125Z,18.20
2018-12-08T17:08:14.554Z,16.80
2018-12-08T17:10:44.009Z,16.43
2018-12-08T17:13:13.495Z,16.83
2018-12-08T17:15:42.967Z,16.33
2018-12-08T17:18:13.448Z,16.07
2018-12-08T17:20:42.909Z,15.63
2018-12-08T17:23:12.321Z,16.77
2018-12-08T17:25:41.762Z,15.57
2018-12-08T17:28:11.197Z,16.00
2018-12-08T17:30:40.624Z,16.77
2018-12-08T17:33:10.136Z,15.23
2018-12-08T17:35:39.564Z,15.13
2018-12-08T17:38:08.994Z,15.00
2018-12-08T17:40:38.412Z,18.87
2018-12-08T17:43:07.867Z,41.50
2018-12-08T17:45:37.306Z,41.30
2018-12-08T17:48:06.773Z,38.53
2018-12-08T17:50:36.569Z,31.87
2018-12-08T17:53:06.012Z,29.83
2018-12-08T17:55:35.833Z,34.03
2018-12-08T17:58:05.296Z,32.53
2018-12-08T18:00:34.750Z,31.40
2018-12-08T18:03:04.200Z,30.17
2018-12-08T18:05:33.633Z,34.97
2018-12-08T18:08:03.152Z,33.43
2018-12-08T18:10:32.585Z,29.80
2018-12-08T18:13:02.046Z,28.53
2018-12-08T18:15:31.509Z,25.67
2018-12-08T18:18:01.028Z,24.37
2018-12-08T18:20:30.441Z,27.40
2018-12-08T18:22:59.880Z,29.33
2018-12-08T18:25:29.298Z,35.07
2018-12-08T18:27:58.784Z,35.20
2018-12-08T18:30:28.188Z,39.43
2018-12-08T18:32:58.654Z,41.57
2018-12-08T18:35:28.098Z,41.57
2018-12-08T18:37:58.216Z,42.50
2018-12-08T18:40:27.654Z,42.47
2018-12-08T18:42:57.091Z,38.60
2018-12-08T18:45:26.548Z,38.03
2018-12-08T18:47:57.224Z,38.20
2018-12-08T18:50:26.642Z,39.10
2018-12-08T18:52:56.077Z,33.50
2018-12-08T18:55:25.525Z,35.67
2018-12-08T18:57:54.948Z,38.37
2018-12-08T19:00:24.350Z,38.60
2018-12-08T19:02:53.803Z,36.80
2018-12-08T19:05:23.280Z,32.97
2018-12-08T19:07:52.684Z,33.10
2018-12-08T19:10:22.100Z,37.37
2018-12-08T19:12:51.518Z,36.77
2018-12-08T19:15:21.020Z,34.00
2018-12-08T19:17:50.456Z,34.40
2018-12-08T19:20:19.880Z,32.70
2018-12-08T19:22:49.316Z,34.03
2018-12-08T19:25:18.834Z,32.97
2018-12-08T19:27:48.389Z,31.70
2018-12-08T19:30:17.840Z,32.23
2018-12-08T19:32:47.311Z,55.80
2018-12-08T19:35:16.855Z,69.57
2018-12-08T19:37:46.298Z,65.63
2018-12-08T19:40:15.734Z,71.40
2018-12-08T19:42:45.164Z,70.60
2018-12-08T19:45:14.606Z,68.77
2018-12-08T19:47:44.049Z,66.97
2018-12-08T19:50:13.473Z,64.97
2018-12-08T19:52:43.038Z,62.90
2018-12-08T19:55:12.465Z,59.70
2018-12-08T19:57:42.070Z,58.87
2018-12-08T20:00:12.716Z,61.03
2018-12-08T20:02:43.342Z,57.67
2018-12-08T20:05:12.829Z,56.13
2018-12-08T20:07:42.264Z,55.57
2018-12-08T20:10:11.702Z,55.33
2018-12-08T20:12:41.356Z,55.67
2018-12-08T20:15:12.473Z,53.17
2018-12-08T20:17:41.987Z,52.60
2018-12-08T20:20:11.413Z,51.30
2018-12-08T20:22:41.514Z,49.77
2018-12-08T20:25:11.013Z,49.13
2018-12-08T20:27:40.486Z,50.27
2018-12-08T20:30:10.120Z,47.67
2018-12-08T20:32:39.559Z,47.70
2018-12-08T20:35:09.056Z,45.77
2018-12-08T20:37:38.629Z,49.83
2018-12-08T20:40:08.737Z,48.33
2018-12-08T20:42:38.180Z,48.83
2018-12-08T20:45:07.701Z,48.93
2018-12-08T20:47:37.260Z,51.13
2018-12-08T20:50:07.900Z,51.30
2018-12-08T20:52:37.382Z,50.57
2018-12-08T20:55:06.852Z,49.27
2018-12-08T20:57:36.284Z,46.90
2018-12-08T21:00:06.022Z,48.63
2018-12-08T21:02:35.444Z,45.37
2018-12-08T21:05:04.888Z,45.50
2018-12-08T21:07:34.358Z,45.23
2018-12-08T21:10:03.921Z,43.43
2018-12-08T21:12:33.486Z,46.17
2018-12-08T21:15:02.950Z,47.10
2018-12-08T21:17:32.353Z,47.07
2018-12-08T21:20:01.796Z,46.97
2018-12-08T21:22:32.340Z,46.60
2018-12-08T21:25:01.761Z,48.43
2018-12-08T21:27:31.148Z,45.50
2018-12-08T21:30:00.589Z,47.20
2018-12-08T21:32:30.041Z,47.37
2018-12-08T21:34:59.491Z,47.33
2018-12-08T21:37:28.901Z,47.10
2018-12-08T21:39:58.372Z,48.13
2018-12-08T21:42:27.797Z,46.87
2018-12-08T21:44:57.225Z,49.83
2018-12-08T21:47:26.637Z,48.13
2018-12-08T21:49:56.125Z,48.13
2018-12-08T21:52:25.524Z,47.67
2018-12-08T21:54:54.956Z,49.57
2018-12-08T21:57:24.364Z,50.90
2018-12-08T21:59:53.824Z,50.20
2018-12-08T22:02:24.317Z,53.20
2018-12-08T22:04:53.733Z,53.47
2018-12-08T22:07:23.136Z,56.40
2018-12-08T22:09:52.552Z,62.13
2018-12-08T22:12:21.979Z,68.03
2018-12-08T22:14:56.665Z,78.83
2018-12-08T22:17:26.162Z,75.77
2018-12-08T22:19:55.691Z,72.70
2018-12-08T22:22:25.402Z,75.20
2018-12-08T22:24:54.838Z,73.47
2018-12-08T22:27:24.281Z,76.43
2018-12-08T22:29:53.744Z,74.13
2018-12-08T22:32:23.185Z,72.53
2018-12-08T22:34:52.598Z,75.03
2018-12-08T22:37:22.044Z,73.00
2018-12-08T22:39:51.452Z,75.37
2018-12-08T22:42:20.888Z,73.57
2018-12-08T22:44:51.361Z,70.80
2018-12-08T22:47:20.793Z,72.23
2018-12-08T22:49:50.404Z,72.87
2018-12-08T22:52:19.856Z,72.93
2018-12-08T22:54:49.300Z,72.87
2018-12-08T22:57:18.851Z,85.87
2018-12-08T22:59:48.329Z,99.10
2018-12-08T23:02:17.768Z,98.00
2018-12-08T23:04:47.200Z,92.80
2018-12-08T23:07:16.652Z,88.73
2018-12-08T23:09:46.057Z,90.57
2018-12-08T23:12:15.508Z,89.33
2018-12-08T23:14:44.921Z,86.67
2018-12-08T23:17:14.352Z,86.40
2018-12-08T23:19:43.780Z,84.60
2018-12-08T23:22:13.208Z,84.40
2018-12-08T23:24:42.652Z,85.57
2018-12-08T23:27:12.067Z,85.67
2018-12-08T23:29:41.484Z,83.43
2018-12-08T23:32:10.909Z,80.27
2018-12-08T23:34:40.313Z,81.63
2018-12-08T23:37:09.701Z,83.00
2018-12-08T23:39:40.693Z,79.03
2018-12-08T23:42:10.295Z,80.33
2018-12-08T23:44:39.708Z,77.00
2018-12-08T23:47:09.108Z,75.97
2018-12-08T23:49:38.537Z,77.97
2018-12-08T23:52:07.940Z,74.73
2018-12-08T23:54:37.341Z,76.70
2018-12-08T23:57:06.749Z,74.67
2018-12-08T23:59:36.296Z,72.87
